Surat Thani, Thailand
Current Conditions -  °F | °C
As of 5:00 PM on Wednesday 22 Oct 2014 (Local Time) from VTSB Reporting Station
Broken Clouds Broken Clouds  
Wind Chill: 86°   Ceiling: 12000
Heat Index: 95°   Visibility: 6mi
Dew Point: 75°   Wind: 9mph
Humidity: 70%   Direction: 60°ENE
Pressure: 29.8"   Gusts: NA
Location:  9.14°N, 99.33°E
Report Text: VTSB 221000Z 06008KT 9999 SCT020 BKN120 30/24 Q1009 A2981
Loading
Personal Weather Stations






























Interactive Weather Map
Tropical Storm Tracking
New forecast layout! Learn more

10-Day Weather Forecast

Advertisements
Track Severe Weather on mobile